Time,TemperatureF,DewpointF,PressureIn,WindDirection,WindDirectionDegrees,WindSpeedMPH,WindSpeedGustMPH,Humidity,HourlyPrecipIn,Conditions,Clouds,dailyrainin,SoftwareType,DateUTC
2013-02-18 00:14:00,30.8,22.0,29.90,SE,134,14.0,22.0,71,0.00,,,0.00,weatherlink.com 1.10,2013-02-18 06:14:00,
2013-02-18 00:29:00,31.0,23.0,29.88,SE,140,10.0,24.0,71,0.00,,,0.00,weatherlink.com 1.10,2013-02-18 06:29:00,
2013-02-18 00:44:00,31.0,23.0,29.87,SE,132,15.0,23.0,72,0.00,,,0.00,weatherlink.com 1.10,2013-02-18 06:44:00,
2013-02-18 00:59:00,31.0,23.0,29.86,SE,127,14.0,23.0,72,0.00,,,0.00,weatherlink.com 1.10,2013-02-18 06:59:00,
2013-02-18 01:14:00,30.9,23.0,29.85,SE,146,19.0,22.0,72,0.00,,,0.00,weatherlink.com 1.10,2013-02-18 07:14:00,
2013-02-18 01:29:00,31.0,23.0,29.84,SE,138,13.0,24.0,72,0.00,,,0.00,weatherlink.com 1.10,2013-02-18 07:29:00,
2013-02-18 01:45:00,30.9,23.0,29.83,SSE,159,9.0,20.0,73,0.00,,,0.00,weatherlink.com 1.10,2013-02-18 07:45:00,
2013-02-18 02:00:00,31.0,23.0,29.82,SE,139,18.0,20.0,73,0.00,,,0.00,weatherlink.com 1.10,2013-02-18 08:00:00,
2013-02-18 02:15:00,31.0,24.0,29.81,SE,141,10.0,20.0,74,0.00,,,0.00,weatherlink.com 1.10,2013-02-18 08:15:00,
2013-02-18 02:30:00,31.1,24.0,29.81,SE,125,12.0,21.0,74,0.00,,,0.00,weatherlink.com 1.10,2013-02-18 08:30:00,
2013-02-18 02:45:00,31.1,24.0,29.80,SSE,153,18.0,20.0,74,0.00,,,0.00,weatherlink.com 1.10,2013-02-18 08:45:00,
2013-02-18 03:00:00,31.2,24.0,29.79,SSE,153,10.0,20.0,75,0.00,,,0.00,weatherlink.com 1.10,2013-02-18 09:00:00,
2013-02-18 03:15:00,31.2,24.0,29.78,SSE,154,11.0,19.0,75,0.00,,,0.00,weatherlink.com 1.10,2013-02-18 09:15:00,
2013-02-18 03:30:00,31.1,24.0,29.77,SE,138,7.0,15.0,76,0.00,,,0.00,weatherlink.com 1.10,2013-02-18 09:30:00,
2013-02-18 03:45:00,31.2,24.0,29.77,SSE,151,8.0,18.0,76,0.00,,,0.00,weatherlink.com 1.10,2013-02-18 09:45:00,
2013-02-18 04:00:00,31.1,25.0,29.77,SSE,166,9.0,13.0,77,0.00,,,0.00,weatherlink.com 1.10,2013-02-18 10:00:00,
2013-02-18 04:15:00,31.2,25.0,29.76,SSE,148,9.0,14.0,77,0.00,,,0.00,weatherlink.com 1.10,2013-02-18 10:15:00,
2013-02-18 04:30:00,31.2,25.0,29.76,SSE,161,9.0,13.0,77,0.00,,,0.00,weatherlink.com 1.10,2013-02-18 10:30:00,
2013-02-18 04:45:00,31.2,25.0,29.75,SE,144,14.0,14.0,78,0.00,,,0.00,weatherlink.com 1.10,2013-02-18 10:45:00,
2013-02-18 05:00:00,31.5,25.0,29.74,South,173,10.0,14.0,78,0.00,,,0.00,weatherlink.com 1.10,2013-02-18 11:00:00,
2013-02-18 05:16:00,31.6,25.0,29.74,SSE,163,8.0,14.0,78,0.00,,,0.00,weatherlink.com 1.10,2013-02-18 11:16:00,
2013-02-18 05:31:00,31.7,26.0,29.73,SSE,157,6.0,12.0,78,0.00,,,0.00,weatherlink.com 1.10,2013-02-18 11:31:00,
2013-02-18 05:46:00,31.7,26.0,29.73,SE,138,7.0,11.0,79,0.00,,,0.00,weatherlink.com 1.10,2013-02-18 11:46:00,
2013-02-18 06:01:00,31.3,26.0,29.72,SSE,157,5.0,8.0,80,0.00,,,0.00,weatherlink.com 1.10,2013-02-18 12:01:00,
2013-02-18 06:16:00,31.4,26.0,29.71,SSE,156,8.0,11.0,80,0.00,,,0.00,weatherlink.com 1.10,2013-02-18 12:16:00,
2013-02-18 06:31:00,31.2,26.0,29.70,SSE,153,8.0,11.0,80,0.00,,,0.00,weatherlink.com 1.10,2013-02-18 12:31:00,
2013-02-18 06:46:00,31.4,26.0,29.71,SSE,154,7.0,11.0,80,0.00,,,0.00,weatherlink.com 1.10,2013-02-18 12:46:00,
2013-02-18 07:01:00,31.2,26.0,29.71,SSE,168,8.0,12.0,81,0.00,,,0.00,weatherlink.com 1.10,2013-02-18 13:01:00,
2013-02-18 07:16:00,30.8,26.0,29.71,South,169,10.0,11.0,81,0.00,,,0.00,weatherlink.com 1.10,2013-02-18 13:16:00,
2013-02-18 07:31:00,30.6,26.0,29.71,South,173,11.0,13.0,82,0.00,,,0.00,weatherlink.com 1.10,2013-02-18 13:31:00,
2013-02-18 07:46:00,30.8,26.0,29.70,SSE,147,11.0,13.0,82,0.00,,,0.00,weatherlink.com 1.10,2013-02-18 13:46:00,
2013-02-18 08:01:00,31.1,26.0,29.70,SSE,152,10.0,12.0,82,0.00,,,0.00,weatherlink.com 1.10,2013-02-18 14:01:00,
2013-02-18 08:16:00,31.4,27.0,29.70,SSE,154,8.0,12.0,82,0.00,,,0.00,weatherlink.com 1.10,2013-02-18 14:16:00,
2013-02-18 08:31:00,32.0,27.0,29.69,SSE,161,7.0,14.0,81,0.00,,,0.00,weatherlink.com 1.10,2013-02-18 14:31:00,
2013-02-18 08:46:00,32.7,27.0,29.68,SE,146,8.0,13.0,80,0.00,,,0.00,weatherlink.com 1.10,2013-02-18 14:46:00,
2013-02-18 09:01:00,33.4,28.0,29.68,SSE,158,10.0,10.0,79,0.00,,,0.00,weatherlink.com 1.10,2013-02-18 15:01:00,
2013-02-18 09:16:00,33.4,28.0,29.68,SE,136,9.0,11.0,80,0.00,,,0.00,weatherlink.com 1.10,2013-02-18 15:16:00,
2013-02-18 09:31:00,34.0,28.0,29.69,South,171,7.0,15.0,79,0.00,,,0.00,weatherlink.com 1.10,2013-02-18 15:31:00,
2013-02-18 09:46:00,34.8,29.0,29.68,SSE,163,9.0,18.0,79,0.00,,,0.00,weatherlink.com 1.10,2013-02-18 15:46:00,
2013-02-18 10:01:00,35.5,29.0,29.67,SE,124,10.0,14.0,78,0.00,,,0.00,weatherlink.com 1.10,2013-02-18 16:01:00,
2013-02-18 10:16:00,36.0,29.0,29.67,SE,134,13.0,21.0,77,0.00,,,0.00,weatherlink.com 1.10,2013-02-18 16:16:00,
2013-02-18 10:31:00,36.2,30.0,29.66,SE,136,9.0,14.0,77,0.00,,,0.00,weatherlink.com 1.10,2013-02-18 16:31:00,
2013-02-18 10:46:00,36.8,30.0,29.67,ESE,107,9.0,15.0,77,0.00,,,0.00,weatherlink.com 1.10,2013-02-18 16:46:00,
2013-02-18 11:01:00,36.8,30.0,29.66,SE,146,14.0,14.0,76,0.00,,,0.00,weatherlink.com 1.10,2013-02-18 17:01:00,
2013-02-18 11:16:00,36.7,30.0,29.66,SSE,163,8.0,15.0,77,0.00,,,0.00,weatherlink.com 1.10,2013-02-18 17:16:00,
2013-02-18 11:31:00,37.4,30.0,29.65,SE,139,10.0,13.0,76,0.00,,,0.00,weatherlink.com 1.10,2013-02-18 17:31:00,
2013-02-18 11:46:00,38.8,31.0,29.65,SE,144,7.0,10.0,74,0.00,,,0.00,weatherlink.com 1.10,2013-02-18 17:46:00,
2013-02-18 12:01:00,39.2,31.0,29.64,SSE,154,5.0,7.0,73,0.00,,,0.00,weatherlink.com 1.10,2013-02-18 18:01:00,
2013-02-18 12:16:00,39.9,32.0,29.64,SSW,197,2.0,8.0,73,0.00,,,0.00,weatherlink.com 1.10,2013-02-18 18:16:00,
2013-02-18 12:32:00,40.3,32.0,29.64,SSE,157,4.0,9.0,71,0.00,,,0.00,weatherlink.com 1.10,2013-02-18 18:32:00,
2013-02-18 12:47:00,40.0,31.0,29.63,South,181,3.0,10.0,71,0.00,,,0.00,weatherlink.com 1.10,2013-02-18 18:47:00,
2013-02-18 13:02:00,40.1,31.0,29.62,South,183,7.0,11.0,71,0.00,,,0.00,weatherlink.com 1.10,2013-02-18 19:02:00,
2013-02-18 13:17:00,40.7,32.0,29.62,SW,223,4.0,9.0,70,0.00,,,0.00,weatherlink.com 1.10,2013-02-18 19:17:00,
2013-02-18 13:32:00,41.0,32.0,29.62,WSW,244,5.0,10.0,70,0.00,,,0.00,weatherlink.com 1.10,2013-02-18 19:32:00,
2013-02-18 13:47:00,-999.0,-99.9,29.63,North,-999,-999.0,-999.0,-999,0.00,,,0.00,weatherlink.com 1.10,2013-02-18 19:47:00,
2013-02-18 14:02:00,-999.0,-99.9,29.63,North,-999,-999.0,-999.0,-999,0.00,,,0.00,weatherlink.com 1.10,2013-02-18 20:02:00,
2013-02-18 14:17:00,-999.0,-99.9,29.64,North,-999,-999.0,-999.0,-999,0.00,,,0.00,weatherlink.com 1.10,2013-02-18 20:17:00,
2013-02-18 14:32:00,-999.0,-99.9,29.64,North,-999,-999.0,-999.0,-999,0.00,,,0.00,weatherlink.com 1.10,2013-02-18 20:32:00,
2013-02-18 14:47:00,-999.0,-99.9,29.65,North,-999,-999.0,-999.0,-999,0.00,,,0.00,weatherlink.com 1.10,2013-02-18 20:47:00,
2013-02-18 15:02:00,-999.0,-99.9,29.66,North,-999,-999.0,-999.0,-999,0.00,,,0.00,weatherlink.com 1.10,2013-02-18 21:02:00,
2013-02-18 15:17:00,-999.0,-99.9,29.65,North,-999,-999.0,-999.0,-999,0.00,,,0.00,weatherlink.com 1.10,2013-02-18 21:17:00,
2013-02-18 15:32:00,36.6,33.0,29.66,SW,234,6.0,11.0,87,0.00,,,0.00,weatherlink.com 1.10,2013-02-18 21:32:00,
2013-02-18 15:47:00,35.8,33.0,29.66,West,261,12.0,19.0,89,0.00,,,0.00,weatherlink.com 1.10,2013-02-18 21:47:00,
2013-02-18 16:02:00,33.8,31.0,29.66,WSW,243,12.0,22.0,89,0.00,,,0.00,weatherlink.com 1.10,2013-02-18 22:02:00,
2013-02-18 16:17:00,32.7,30.0,29.67,WSW,258,9.0,22.0,89,0.00,,,0.00,weatherlink.com 1.10,2013-02-18 22:17:00,
2013-02-18 16:32:00,31.9,28.0,29.68,SW,233,10.0,24.0,84,0.00,,,0.00,weatherlink.com 1.10,2013-02-18 22:32:00,
2013-02-18 16:47:00,31.1,27.0,29.67,West,271,14.0,22.0,86,0.00,,,0.00,weatherlink.com 1.10,2013-02-18 22:47:00,
2013-02-18 17:02:00,29.9,26.0,29.68,WNW,282,11.0,21.0,86,0.00,,,0.00,weatherlink.com 1.10,2013-02-18 23:02:00,
2013-02-18 17:17:00,28.8,25.0,29.69,WSW,258,15.0,19.0,85,0.00,,,0.00,weatherlink.com 1.10,2013-02-18 23:17:00,
2013-02-18 17:32:00,27.4,23.0,29.71,West,263,25.0,26.0,82,0.00,,,0.00,weatherlink.com 1.10,2013-02-18 23:32:00,
2013-02-18 17:47:00,26.6,22.0,29.71,WSW,252,18.0,22.0,82,0.00,,,0.00,weatherlink.com 1.10,2013-02-18 23:47:00,
2013-02-18 18:03:00,25.8,20.0,29.72,WSW,257,16.0,25.0,80,0.00,,,0.00,weatherlink.com 1.10,2013-02-19 00:03:00,
2013-02-18 18:18:00,25.2,20.0,29.74,West,265,15.0,25.0,79,0.00,,,0.00,weatherlink.com 1.10,2013-02-19 00:18:00,
2013-02-18 18:33:00,24.6,19.0,29.75,West,269,6.0,24.0,79,0.00,,,0.00,weatherlink.com 1.10,2013-02-19 00:33:00,
2013-02-18 18:48:00,24.1,19.0,29.75,WSW,258,5.0,20.0,79,0.00,,,0.00,weatherlink.com 1.10,2013-02-19 00:48:00,
2013-02-18 19:03:00,22.8,17.0,29.76,WNW,285,10.0,23.0,78,0.00,,,0.00,weatherlink.com 1.10,2013-02-19 01:03:00,
2013-02-18 19:18:00,22.4,17.0,29.76,WSW,255,9.0,19.0,79,0.00,,,0.00,weatherlink.com 1.10,2013-02-19 01:18:00,
2013-02-18 19:33:00,21.6,16.0,29.75,West,263,18.0,21.0,79,0.00,,,0.00,weatherlink.com 1.10,2013-02-19 01:33:00,
2013-02-18 19:48:00,21.2,16.0,29.74,West,259,8.0,21.0,79,0.00,,,0.00,weatherlink.com 1.10,2013-02-19 01:48:00,
2013-02-18 20:03:00,20.6,15.0,29.75,WSW,252,6.0,19.0,79,0.00,,,0.00,weatherlink.com 1.10,2013-02-19 02:03:00,
2013-02-18 20:18:00,20.3,15.0,29.75,West,262,18.0,24.0,80,0.00,,,0.00,weatherlink.com 1.10,2013-02-19 02:18:00,
2013-02-18 20:33:00,20.1,15.0,29.75,West,261,11.0,19.0,80,0.00,,,0.00,weatherlink.com 1.10,2013-02-19 02:33:00,
2013-02-18 20:48:00,19.8,14.0,29.75,West,265,15.0,22.0,79,0.00,,,0.00,weatherlink.com 1.10,2013-02-19 02:48:00,
2013-02-18 21:03:00,19.4,14.0,29.76,West,275,14.0,20.0,80,0.00,,,0.00,weatherlink.com 1.10,2013-02-19 03:03:00,
2013-02-18 21:18:00,18.7,14.0,29.76,West,275,11.0,24.0,80,0.00,,,0.00,weatherlink.com 1.10,2013-02-19 03:18:00,
2013-02-18 21:33:00,18.4,14.0,29.77,West,261,16.0,20.0,81,0.00,,,0.00,weatherlink.com 1.10,2013-02-19 03:33:00,
2013-02-18 21:48:00,18.1,13.0,29.77,SW,227,8.0,18.0,81,0.00,,,0.00,weatherlink.com 1.10,2013-02-19 03:48:00,
2013-02-18 22:03:00,17.7,13.0,29.78,SW,215,8.0,13.0,81,0.00,,,0.00,weatherlink.com 1.10,2013-02-19 04:03:00,
2013-02-18 22:18:00,17.4,13.0,29.78,SW,231,11.0,18.0,81,0.00,,,0.00,weatherlink.com 1.10,2013-02-19 04:18:00,
2013-02-18 22:33:00,17.2,12.0,29.79,WSW,240,11.0,21.0,81,0.00,,,0.00,weatherlink.com 1.10,2013-02-19 04:33:00,
2013-02-18 22:48:00,17.1,12.0,29.79,West,271,4.0,19.0,81,0.00,,,0.00,weatherlink.com 1.10,2013-02-19 04:48:00,
2013-02-18 23:03:00,17.0,12.0,29.79,West,261,13.0,20.0,81,0.00,,,0.00,weatherlink.com 1.10,2013-02-19 05:03:00,
2013-02-18 23:18:00,16.7,12.0,29.80,West,263,11.0,20.0,81,0.00,,,0.00,weatherlink.com 1.10,2013-02-19 05:18:00,
2013-02-18 23:33:00,16.5,12.0,29.80,WSW,249,11.0,19.0,82,0.00,,,0.00,weatherlink.com 1.10,2013-02-19 05:33:00,
2013-02-18 23:48:00,16.2,12.0,29.80,West,274,9.0,21.0,82,0.00,,,0.00,weatherlink.com 1.10,2013-02-19 05:48:00,